sensor_id;sensor_type;location;lat;lon;timestamp;pressure;altitude;pressure_sealevel;temperature;humidity
69214;BME280;56325;47.030;18.518;2022-10-20T05:07:02;101462.72;;;7.50;70.00
69214;BME280;56325;47.030;18.518;2022-10-20T05:09:37;101462.72;;;7.50;70.00
69214;BME280;56325;47.030;18.518;2022-10-20T05:12:11;101467.28;;;6.82;71.47
69214;BME280;56325;47.030;18.518;2022-10-20T05:14:46;101459.97;;;6.68;72.62
69214;BME280;56325;47.030;18.518;2022-10-20T05:17:20;101460.69;;;6.76;71.88
69214;BME280;56325;47.030;18.518;2022-10-20T05:19:55;101464.69;;;6.64;72.29
69214;BME280;56325;47.030;18.518;2022-10-20T05:22:31;101470.47;;;6.73;72.26
69214;BME280;56325;47.030;18.518;2022-10-20T05:25:06;101479.44;;;6.74;71.96
69214;BME280;56325;47.030;18.518;2022-10-20T05:28:01;101469.97;;;6.89;71.52
69214;BME280;56325;47.030;18.518;2022-10-20T05:30:37;101479.44;;;6.74;72.18
69214;BME280;56325;47.030;18.518;2022-10-20T05:33:11;101486.12;;;6.69;72.82
69214;BME280;56325;47.030;18.518;2022-10-20T05:35:46;101504.94;;;6.56;72.83
69214;BME280;56325;47.030;18.518;2022-10-20T05:38:21;101513.50;;;6.58;73.28
69214;BME280;56325;47.030;18.518;2022-10-20T05:41:04;101513.16;;;6.53;73.29
69214;BME280;56325;47.030;18.518;2022-10-20T05:43:39;101509.16;;;6.68;73.06
69214;BME280;56325;47.030;18.518;2022-10-20T05:46:13;101504.47;;;6.69;72.40
69214;BME280;56325;47.030;18.518;2022-10-20T05:48:48;101524.50;;;6.48;73.56
69214;BME280;56325;47.030;18.518;2022-10-20T05:51:26;101514.41;;;6.41;74.65
69214;BME280;56325;47.030;18.518;2022-10-20T05:54:02;101518.19;;;6.62;73.80
69214;BME280;56325;47.030;18.518;2022-10-20T05:56:37;101524.69;;;6.82;73.20
69214;BME280;56325;47.030;18.518;2022-10-20T05:59:12;101525.28;;;7.04;72.34
69214;BME280;56325;47.030;18.518;2022-10-20T06:01:46;101534.19;;;7.15;71.63
69214;BME280;56325;47.030;18.518;2022-10-20T06:04:22;101539.91;;;6.83;72.69
69214;BME280;56325;47.030;18.518;2022-10-20T06:06:57;101538.72;;;6.87;73.34
69214;BME280;56325;47.030;18.518;2022-10-20T06:09:32;101539.66;;;7.15;72.59
69214;BME280;56325;47.030;18.518;2022-10-20T06:12:06;101542.31;;;7.26;72.07
69214;BME280;56325;47.030;18.518;2022-10-20T06:14:41;101539.84;;;7.38;71.81
69214;BME280;56325;47.030;18.518;2022-10-20T06:17:15;101545.16;;;7.56;71.54
69214;BME280;56325;47.030;18.518;2022-10-20T06:19:52;101549.94;;;7.45;71.91
69214;BME280;56325;47.030;18.518;2022-10-20T06:22:30;101547.47;;;7.57;71.74
69214;BME280;56325;47.030;18.518;2022-10-20T06:25:07;101557.56;;;7.68;71.38
69214;BME280;56325;47.030;18.518;2022-10-20T06:27:41;101559.13;;;7.69;71.61
69214;BME280;56325;47.030;18.518;2022-10-20T06:30:18;101566.09;;;7.73;72.00
69214;BME280;56325;47.030;18.518;2022-10-20T06:32:53;101555.78;;;7.84;71.95
69214;BME280;56325;47.030;18.518;2022-10-20T06:35:29;101567.00;;;7.97;71.62
69214;BME280;56325;47.030;18.518;2022-10-20T06:38:04;101568.34;;;7.82;71.68
69214;BME280;56325;47.030;18.518;2022-10-20T06:40:41;101571.78;;;7.89;71.59
69214;BME280;56325;47.030;18.518;2022-10-20T06:43:15;101571.44;;;7.46;72.88
69214;BME280;56325;47.030;18.518;2022-10-20T06:45:53;101578.12;;;7.42;73.56
69214;BME280;56325;47.030;18.518;2022-10-20T06:48:28;101581.31;;;7.33;74.76
69214;BME280;56325;47.030;18.518;2022-10-20T06:51:05;101580.38;;;7.54;74.55
69214;BME280;56325;47.030;18.518;2022-10-20T06:53:40;101588.75;;;7.77;73.55
69214;BME280;56325;47.030;18.518;2022-10-20T06:56:22;101578.00;;;7.94;73.45
69214;BME280;56325;47.030;18.518;2022-10-20T06:58:57;101583.03;;;7.99;73.09
69214;BME280;56325;47.030;18.518;2022-10-20T07:01:33;101590.41;;;8.05;73.00
69214;BME280;56325;47.030;18.518;2022-10-20T07:04:10;101583.25;;;8.15;73.11
69214;BME280;56325;47.030;18.518;2022-10-20T07:06:46;101585.84;;;8.26;73.26
69214;BME280;56325;47.030;18.518;2022-10-20T07:09:20;101591.84;;;8.51;72.83
69214;BME280;56325;47.030;18.518;2022-10-20T07:11:56;101587.72;;;8.32;73.30
69214;BME280;56325;47.030;18.518;2022-10-20T07:14:30;101578.69;;;8.39;73.62
69214;BME280;56325;47.030;18.518;2022-10-20T07:17:09;101591.75;;;8.58;73.04
69214;BME280;56325;47.030;18.518;2022-10-20T07:19:43;101585.13;;;9.09;70.63
69214;BME280;56325;47.030;18.518;2022-10-20T07:22:18;101593.53;;;8.68;72.37
69214;BME280;56325;47.030;18.518;2022-10-20T07:24:52;101586.72;;;8.80;72.12
69214;BME280;56325;47.030;18.518;2022-10-20T07:27:27;101595.53;;;8.95;72.01
69214;BME280;56325;47.030;18.518;2022-10-20T07:30:10;101592.16;;;9.10;72.11
69214;BME280;56325;47.030;18.518;2022-10-20T07:32:44;101591.06;;;9.31;71.57
69214;BME280;56325;47.030;18.518;2022-10-20T07:35:19;101572.41;;;11.62;95.63
69214;BME280;56325;47.030;18.518;2022-10-20T07:37:53;101580.13;;;11.06;78.07
69214;BME280;56325;47.030;18.518;2022-10-20T07:40:27;101580.09;;;10.54;71.09
69214;BME280;56325;47.030;18.518;2022-10-20T07:43:03;101581.31;;;10.52;70.93
69214;BME280;56325;47.030;18.518;2022-10-20T07:45:37;101585.56;;;10.37;69.69
69214;BME280;56325;47.030;18.518;2022-10-20T07:48:11;101574.22;;;10.35;70.90
69214;BME280;56325;47.030;18.518;2022-10-20T07:50:48;101579.69;;;10.55;70.14
69214;BME280;56325;47.030;18.518;2022-10-20T07:53:22;101576.88;;;10.75;69.23
69214;BME280;56325;47.030;18.518;2022-10-20T07:55:56;101564.88;;;11.01;68.53
69214;BME280;56325;47.030;18.518;2022-10-20T07:58:32;101573.47;;;12.52;91.25
69214;BME280;56325;47.030;18.518;2022-10-20T08:01:07;101560.53;;;13.72;90.77
69214;BME280;56325;47.030;18.518;2022-10-20T08:03:41;101562.34;;;12.68;67.86
69214;BME280;56325;47.030;18.518;2022-10-20T08:06:16;101566.13;;;12.20;65.53
69214;BME280;56325;47.030;18.518;2022-10-20T08:08:50;101567.22;;;12.22;64.89
69214;BME280;56325;47.030;18.518;2022-10-20T08:11:25;101571.97;;;12.09;64.34
69214;BME280;56325;47.030;18.518;2022-10-20T08:14:01;101569.66;;;12.07;64.67
69214;BME280;56325;47.030;18.518;2022-10-20T08:16:35;101575.06;;;12.11;63.03
69214;BME280;56325;47.030;18.518;2022-10-20T08:19:11;101563.78;;;12.18;62.28
69214;BME280;56325;47.030;18.518;2022-10-20T08:22:03;101557.78;;;12.36;61.50
69214;BME280;56325;47.030;18.518;2022-10-20T08:24:37;101568.81;;;12.36;59.49
69214;BME280;56325;47.030;18.518;2022-10-20T08:27:11;101577.81;;;12.24;59.83
69214;BME280;56325;47.030;18.518;2022-10-20T08:29:47;101573.44;;;13.15;81.24
69214;BME280;56325;47.030;18.518;2022-10-20T08:32:39;101576.03;;;12.84;57.67
69214;BME280;56325;47.030;18.518;2022-10-20T08:35:13;101568.06;;;12.61;58.73
69214;BME280;56325;47.030;18.518;2022-10-20T08:37:48;101571.50;;;12.77;58.07
69214;BME280;56325;47.030;18.518;2022-10-20T08:40:26;101574.91;;;12.69;56.81
69214;BME280;56325;47.030;18.518;2022-10-20T08:43:00;101571.38;;;12.56;56.92
69214;BME280;56325;47.030;18.518;2022-10-20T08:45:38;101569.16;;;12.51;56.66
69214;BME280;56325;47.030;18.518;2022-10-20T08:48:16;101572.16;;;12.69;56.89
69214;BME280;56325;47.030;18.518;2022-10-20T08:50:53;101573.81;;;12.54;56.88
69214;BME280;56325;47.030;18.518;2022-10-20T08:53:28;101569.06;;;12.67;56.55
69214;BME280;56325;47.030;18.518;2022-10-20T08:56:09;101573.16;;;12.88;55.64
69214;BME280;56325;47.030;18.518;2022-10-20T08:58:45;101567.31;;;12.98;56.36
69214;BME280;56325;47.030;18.518;2022-10-20T09:01:23;101571.34;;;13.06;55.18
69214;BME280;56325;47.030;18.518;2022-10-20T09:04:10;101566.97;;;12.96;54.68
69214;BME280;56325;47.030;18.518;2022-10-20T09:06:50;101558.66;;;13.09;54.30
69214;BME280;56325;47.030;18.518;2022-10-20T09:09:28;101562.31;;;13.19;54.17
69214;BME280;56325;47.030;18.518;2022-10-20T09:12:05;101563.94;;;13.29;55.16
69214;BME280;56325;47.030;18.518;2022-10-20T09:14:40;101565.81;;;13.32;53.84
69214;BME280;56325;47.030;18.518;2022-10-20T09:17:17;101554.94;;;13.50;54.04
69214;BME280;56325;47.030;18.518;2022-10-20T09:19:54;101563.69;;;13.49;52.96
69214;BME280;56325;47.030;18.518;2022-10-20T09:22:32;101564.63;;;13.67;52.37
69214;BME280;56325;47.030;18.518;2022-10-20T09:25:12;101563.41;;;13.68;51.15
69214;BME280;56325;47.030;18.518;2022-10-20T09:27:49;101556.53;;;13.73;50.95
69214;BME280;56325;47.030;18.518;2022-10-20T09:30:32;101556.97;;;13.71;52.24
69214;BME280;56325;47.030;18.518;2022-10-20T09:33:22;101567.47;;;13.76;48.69
69214;BME280;56325;47.030;18.518;2022-10-20T09:36:03;101551.19;;;13.78;47.79
69214;BME280;56325;47.030;18.518;2022-10-20T09:38:42;101562.63;;;13.90;48.71
69214;BME280;56325;47.030;18.518;2022-10-20T09:41:19;101551.63;;;13.99;48.48
69214;BME280;56325;47.030;18.518;2022-10-20T09:43:57;101552.91;;;14.51;54.11
69214;BME280;56325;47.030;18.518;2022-10-20T09:46:36;101560.25;;;15.43;66.20
69214;BME280;56325;47.030;18.518;2022-10-20T09:49:22;101548.19;;;15.09;46.79
69214;BME280;56325;47.030;18.518;2022-10-20T09:51:59;101539.78;;;14.82;47.10
69214;BME280;56325;47.030;18.518;2022-10-20T09:54:34;101540.06;;;14.75;47.06
69214;BME280;56325;47.030;18.518;2022-10-20T09:57:16;101551.69;;;14.52;44.91
69214;BME280;56325;47.030;18.518;2022-10-20T10:00:00;101547.62;;;14.43;46.04
69214;BME280;56325;47.030;18.518;2022-10-20T10:03:09;101554.50;;;14.39;46.05
69214;BME280;56325;47.030;18.518;2022-10-20T10:05:47;101541.25;;;14.56;47.05
69214;BME280;56325;47.030;18.518;2022-10-20T10:08:23;101550.78;;;14.33;47.97
69214;BME280;56325;47.030;18.518;2022-10-20T10:11:01;101548.09;;;14.42;46.43
69214;BME280;56325;47.030;18.518;2022-10-20T10:13:38;101549.19;;;14.45;47.05
69214;BME280;56325;47.030;18.518;2022-10-20T10:16:16;101540.91;;;14.54;46.24
69214;BME280;56325;47.030;18.518;2022-10-20T10:18:57;101534.97;;;14.64;47.93
69214;BME280;56325;47.030;18.518;2022-10-20T10:21:44;101552.53;;;14.70;45.30
69214;BME280;56325;47.030;18.518;2022-10-20T10:24:41;101536.28;;;14.51;44.99
69214;BME280;56325;47.030;18.518;2022-10-20T10:27:24;101542.41;;;14.46;45.53
69214;BME280;56325;47.030;18.518;2022-10-20T10:30:25;101542.31;;;14.58;45.25
69214;BME280;56325;47.030;18.518;2022-10-20T10:33:00;101528.66;;;14.64;44.86
69214;BME280;56325;47.030;18.518;2022-10-20T10:35:36;101539.47;;;14.80;45.44
69214;BME280;56325;47.030;18.518;2022-10-20T10:38:14;101522.84;;;14.71;44.46
69214;BME280;56325;47.030;18.518;2022-10-20T10:40:55;101528.53;;;14.67;46.07
69214;BME280;56325;47.030;18.518;2022-10-20T10:43:36;101526.06;;;14.79;44.92
69214;BME280;56325;47.030;18.518;2022-10-20T10:46:19;101524.13;;;14.97;45.45
69214;BME280;56325;47.030;18.518;2022-10-20T10:51:58;101513.38;;;14.99;44.86
69214;BME280;56325;47.030;18.518;2022-10-20T10:54:51;101506.25;;;14.89;44.44
69214;BME280;56325;47.030;18.518;2022-10-20T10:57:31;101510.12;;;15.01;44.35
69214;BME280;56325;47.030;18.518;2022-10-20T11:00:13;101510.63;;;15.08;44.86
69214;BME280;56325;47.030;18.518;2022-10-20T11:03:02;101506.03;;;15.33;44.87
69214;BME280;56325;47.030;18.518;2022-10-20T11:06:07;101488.47;;;15.36;43.60
69214;BME280;56325;47.030;18.518;2022-10-20T11:08:57;101491.25;;;15.45;43.40
69214;BME280;56325;47.030;18.518;2022-10-20T11:11:43;101496.19;;;15.41;43.91
69214;BME280;56325;47.030;18.518;2022-10-20T11:14:31;101490.03;;;15.37;43.60
69214;BME280;56325;47.030;18.518;2022-10-20T11:17:19;101486.62;;;15.60;44.10
69214;BME280;56325;47.030;18.518;2022-10-20T11:20:23;101478.31;;;15.42;43.69
69214;BME280;56325;47.030;18.518;2022-10-20T11:23:21;101477.53;;;15.69;43.05
69214;BME280;56325;47.030;18.518;2022-10-20T11:26:10;101479.22;;;15.66;42.71
69214;BME280;56325;47.030;18.518;2022-10-20T11:28:49;101462.62;;;15.57;43.06
69214;BME280;56325;47.030;18.518;2022-10-20T11:31:28;101456.84;;;15.97;43.91
69214;BME280;56325;47.030;18.518;2022-10-20T11:34:09;101448.88;;;15.72;42.64
69214;BME280;56325;47.030;18.518;2022-10-20T11:36:48;101453.78;;;15.86;43.40
69214;BME280;56325;47.030;18.518;2022-10-20T11:39:26;101441.94;;;15.77;42.63
69214;BME280;56325;47.030;18.518;2022-10-20T11:42:12;101442.53;;;15.81;43.18
69214;BME280;56325;47.030;18.518;2022-10-20T11:44:53;101446.47;;;16.07;42.95
69214;BME280;56325;47.030;18.518;2022-10-20T11:47:33;101441.97;;;16.19;41.61
69214;BME280;56325;47.030;18.518;2022-10-20T11:50:18;101436.09;;;16.50;43.26
69214;BME280;56325;47.030;18.518;2022-10-20T11:53:20;101430.00;;;16.69;41.88
69214;BME280;56325;47.030;18.518;2022-10-20T11:56:13;101429.34;;;16.98;55.34
69214;BME280;56325;47.030;18.518;2022-10-20T11:59:09;101415.53;;;17.28;45.61
69214;BME280;56325;47.030;18.518;2022-10-20T12:02:03;101430.97;;;17.29;41.88
69214;BME280;56325;47.030;18.518;2022-10-20T12:04:59;101427.13;;;16.88;41.74
69214;BME280;56325;47.030;18.518;2022-10-20T12:07:53;101421.31;;;17.00;41.45
69214;BME280;56325;47.030;18.518;2022-10-20T12:10:55;101426.87;;;16.77;41.55
69214;BME280;56325;47.030;18.518;2022-10-20T12:13:40;101419.25;;;16.86;40.52
69214;BME280;56325;47.030;18.518;2022-10-20T12:19:34;101408.62;;;17.38;40.02
69214;BME280;56325;47.030;18.518;2022-10-20T12:22:41;101406.03;;;17.34;39.32
69214;BME280;56325;47.030;18.518;2022-10-20T12:25:34;101391.88;;;17.77;39.75
69214;BME280;56325;47.030;18.518;2022-10-20T12:28:40;101386.59;;;17.93;39.80
69214;BME280;56325;47.030;18.518;2022-10-20T12:31:17;101392.25;;;17.84;38.41
69214;BME280;56325;47.030;18.518;2022-10-20T12:33:59;101389.28;;;17.73;39.46
69214;BME280;56325;47.030;18.518;2022-10-20T12:36:37;101381.59;;;17.24;38.84
69214;BME280;56325;47.030;18.518;2022-10-20T12:39:15;101379.97;;;17.17;40.05
69214;BME280;56325;47.030;18.518;2022-10-20T12:41:58;101376.59;;;17.43;39.56
69214;BME280;56325;47.030;18.518;2022-10-20T12:44:41;101371.63;;;17.32;39.70
69214;BME280;56325;47.030;18.518;2022-10-20T12:47:18;101366.16;;;17.52;39.97
69214;BME280;56325;47.030;18.518;2022-10-20T12:50:00;101353.03;;;17.82;38.83
69214;BME280;56325;47.030;18.518;2022-10-20T12:52:38;101357.12;;;17.87;39.51
69214;BME280;56325;47.030;18.518;2022-10-20T12:55:16;101360.06;;;18.13;39.68
69214;BME280;56325;47.030;18.518;2022-10-20T12:58:09;101358.94;;;18.05;38.91
69214;BME280;56325;47.030;18.518;2022-10-20T13:01:03;101354.78;;;18.15;38.43
69214;BME280;56325;47.030;18.518;2022-10-20T13:03:42;101350.66;;;18.10;38.50
69214;BME280;56325;47.030;18.518;2022-10-20T13:06:38;101355.94;;;18.08;37.78
69214;BME280;56325;47.030;18.518;2022-10-20T13:09:22;101358.69;;;17.88;38.44
69214;BME280;56325;47.030;18.518;2022-10-20T13:12:01;101355.59;;;17.86;38.62
69214;BME280;56325;47.030;18.518;2022-10-20T13:14:54;101371.34;;;17.59;38.53
69214;BME280;56325;47.030;18.518;2022-10-20T13:17:42;101358.47;;;17.91;38.73
69214;BME280;56325;47.030;18.518;2022-10-20T13:20:28;101350.78;;;18.01;39.46
69214;BME280;56325;47.030;18.518;2022-10-20T13:23:11;101353.69;;;17.77;38.63
69214;BME280;56325;47.030;18.518;2022-10-20T13:25:50;101348.13;;;17.92;39.37
69214;BME280;56325;47.030;18.518;2022-10-20T13:28:27;101358.00;;;17.63;39.45
69214;BME280;56325;47.030;18.518;2022-10-20T13:31:09;101356.25;;;17.95;45.96
69214;BME280;56325;47.030;18.518;2022-10-20T13:33:51;101353.91;;;17.29;40.49
69214;BME280;56325;47.030;18.518;2022-10-20T13:36:47;101356.75;;;17.20;40.54
69214;BME280;56325;47.030;18.518;2022-10-20T13:39:33;101346.78;;;17.43;40.75
69214;BME280;56325;47.030;18.518;2022-10-20T13:42:19;101354.16;;;17.02;40.95
69214;BME280;56325;47.030;18.518;2022-10-20T13:45:04;101347.00;;;17.25;41.08
69214;BME280;56325;47.030;18.518;2022-10-20T13:47:46;101348.00;;;16.98;40.40
69214;BME280;56325;47.030;18.518;2022-10-20T13:50:30;101340.44;;;16.98;40.83
69214;BME280;56325;47.030;18.518;2022-10-20T13:53:15;101341.25;;;16.75;41.20
69214;BME280;56325;47.030;18.518;2022-10-20T13:56:01;101336.84;;;16.59;41.95
69214;BME280;56325;47.030;18.518;2022-10-20T13:58:38;101330.72;;;16.55;41.75
69214;BME280;56325;47.030;18.518;2022-10-20T14:01:14;101337.59;;;16.21;43.22
69214;BME280;56325;47.030;18.518;2022-10-20T14:03:51;101326.19;;;16.19;43.75
69214;BME280;56325;47.030;18.518;2022-10-20T14:06:30;101331.44;;;16.17;43.68
69214;BME280;56325;47.030;18.518;2022-10-20T14:09:13;101334.94;;;15.94;43.63
69214;BME280;56325;47.030;18.518;2022-10-20T14:11:50;101334.03;;;15.88;43.59
69214;BME280;56325;47.030;18.518;2022-10-20T14:14:28;101330.72;;;15.74;44.40
69214;BME280;56325;47.030;18.518;2022-10-20T14:17:04;101329.16;;;15.73;43.88
69214;BME280;56325;47.030;18.518;2022-10-20T14:19:40;101320.50;;;15.81;43.99
69214;BME280;56325;47.030;18.518;2022-10-20T14:22:20;101313.84;;;15.54;44.10
69214;BME280;56325;47.030;18.518;2022-10-20T14:24:55;101324.03;;;15.39;45.12
69214;BME280;56325;47.030;18.518;2022-10-20T14:27:32;101310.63;;;15.47;44.96
69214;BME280;56325;47.030;18.518;2022-10-20T14:30:16;101312.66;;;15.37;45.07
69214;BME280;56325;47.030;18.518;2022-10-20T14:32:51;101307.44;;;15.30;45.54
69214;BME280;56325;47.030;18.518;2022-10-20T14:35:30;101309.59;;;15.17;44.95
69214;BME280;56325;47.030;18.518;2022-10-20T14:38:14;101299.44;;;15.14;45.64
69214;BME280;56325;47.030;18.518;2022-10-20T14:40:51;101293.91;;;15.23;45.45
69214;BME280;56325;47.030;18.518;2022-10-20T14:43:35;101291.75;;;15.08;45.80
69214;BME280;56325;47.030;18.518;2022-10-20T14:46:23;101293.75;;;15.08;45.52
69214;BME280;56325;47.030;18.518;2022-10-20T14:48:59;101296.22;;;15.06;45.42
69214;BME280;56325;47.030;18.518;2022-10-20T14:51:37;101297.03;;;14.88;46.40
69214;BME280;56325;47.030;18.518;2022-10-20T14:54:27;101289.19;;;14.77;45.84
69214;BME280;56325;47.030;18.518;2022-10-20T14:57:30;101292.75;;;14.69;45.92
69214;BME280;56325;47.030;18.518;2022-10-20T15:00:27;101291.81;;;14.63;46.99
69214;BME280;56325;47.030;18.518;2022-10-20T15:03:05;101284.75;;;14.53;46.64
69214;BME280;56325;47.030;18.518;2022-10-20T15:05:41;101289.06;;;14.54;46.92
69214;BME280;56325;47.030;18.518;2022-10-20T15:08:22;101282.75;;;14.53;47.60
69214;BME280;56325;47.030;18.518;2022-10-20T15:10:58;101285.06;;;14.55;47.39
69214;BME280;56325;47.030;18.518;2022-10-20T15:13:32;101287.97;;;14.42;47.83
69214;BME280;56325;47.030;18.518;2022-10-20T15:16:30;101290.06;;;14.38;48.39
69214;BME280;56325;47.030;18.518;2022-10-20T15:19:25;101283.59;;;14.23;48.82
69214;BME280;56325;47.030;18.518;2022-10-20T15:22:07;101288.06;;;14.20;48.84
69214;BME280;56325;47.030;18.518;2022-10-20T15:24:42;101283.94;;;14.34;48.06
69214;BME280;56325;47.030;18.518;2022-10-20T15:27:17;101288.72;;;14.42;48.36
69214;BME280;56325;47.030;18.518;2022-10-20T15:29:53;101291.41;;;14.15;48.70
69214;BME280;56325;47.030;18.518;2022-10-20T15:32:27;101291.37;;;13.97;50.43
69214;BME280;56325;47.030;18.518;2022-10-20T15:35:09;101289.81;;;13.87;51.26
69214;BME280;56325;47.030;18.518;2022-10-20T15:37:43;101287.53;;;13.85;51.32
69214;BME280;56325;47.030;18.518;2022-10-20T15:40:27;101286.78;;;15.31;77.26
69214;BME280;56325;47.030;18.518;2022-10-20T15:43:02;101288.66;;;15.76;74.85
69214;BME280;56325;47.030;18.518;2022-10-20T15:45:38;101274.22;;;15.02;54.43
69214;BME280;56325;47.030;18.518;2022-10-20T15:48:14;101294.91;;;14.56;53.11
69214;BME280;56325;47.030;18.518;2022-10-20T15:50:52;101281.91;;;14.25;51.70
69214;BME280;56325;47.030;18.518;2022-10-20T15:53:27;101279.41;;;14.09;52.22
69214;BME280;56325;47.030;18.518;2022-10-20T15:56:01;101278.47;;;13.94;52.16
69214;BME280;56325;47.030;18.518;2022-10-20T15:58:35;101287.81;;;13.78;53.07
69214;BME280;56325;47.030;18.518;2022-10-20T16:01:12;101288.00;;;13.53;52.63
69214;BME280;56325;47.030;18.518;2022-10-20T16:03:49;101288.63;;;13.57;52.15
69214;BME280;56325;47.030;18.518;2022-10-20T16:06:24;101286.47;;;13.52;52.52
69214;BME280;56325;47.030;18.518;2022-10-20T16:08:59;101278.25;;;13.39;52.97
69214;BME280;56325;47.030;18.518;2022-10-20T16:11:34;101288.34;;;13.33;52.60
69214;BME280;56325;47.030;18.518;2022-10-20T16:14:28;101293.31;;;13.16;52.45
69214;BME280;56325;47.030;18.518;2022-10-20T16:17:22;101289.97;;;13.21;52.78
69214;BME280;56325;47.030;18.518;2022-10-20T19:23:36;101272.41;;;12.15;58.49
69214;BME280;56325;47.030;18.518;2022-10-20T19:26:13;101274.97;;;11.59;59.76
69214;BME280;56325;47.030;18.518;2022-10-20T19:28:50;101279.38;;;11.43;60.84
69214;BME280;56325;47.030;18.518;2022-10-20T19:31:33;101284.09;;;11.18;60.25
69214;BME280;56325;47.030;18.518;2022-10-20T19:34:10;101276.09;;;10.94;61.24
69214;BME280;56325;47.030;18.518;2022-10-20T19:36:45;101280.66;;;10.56;61.45
69214;BME280;56325;47.030;18.518;2022-10-20T19:39:24;101285.31;;;10.42;62.46
69214;BME280;56325;47.030;18.518;2022-10-20T19:42:00;101287.19;;;10.33;62.70
69214;BME280;56325;47.030;18.518;2022-10-20T19:44:35;101282.19;;;10.28;62.69
69214;BME280;56325;47.030;18.518;2022-10-20T19:47:10;101289.66;;;10.27;63.10
69214;BME280;56325;47.030;18.518;2022-10-20T19:49:44;101292.69;;;10.33;62.84
69214;BME280;56325;47.030;18.518;2022-10-20T19:52:19;101290.53;;;10.24;63.04
69214;BME280;56325;47.030;18.518;2022-10-20T19:54:55;101286.41;;;10.32;63.12
69214;BME280;56325;47.030;18.518;2022-10-20T19:57:29;101294.13;;;10.21;63.27
69214;BME280;56325;47.030;18.518;2022-10-20T20:00:04;101290.34;;;10.15;63.11
69214;BME280;56325;47.030;18.518;2022-10-20T20:02:39;101294.13;;;10.21;63.17
69214;BME280;56325;47.030;18.518;2022-10-20T20:05:15;101293.75;;;10.19;62.99
69214;BME280;56325;47.030;18.518;2022-10-20T20:07:50;101296.94;;;10.01;63.57
69214;BME280;56325;47.030;18.518;2022-10-20T20:10:26;101303.34;;;9.78;63.94
69214;BME280;56325;47.030;18.518;2022-10-20T20:13:00;101303.88;;;9.73;64.48
69214;BME280;56325;47.030;18.518;2022-10-20T20:15:36;101305.06;;;9.72;64.23
69214;BME280;56325;47.030;18.518;2022-10-20T20:18:10;101309.34;;;9.73;64.29
69214;BME280;56325;47.030;18.518;2022-10-20T20:20:46;101303.50;;;9.71;64.42
69214;BME280;56325;47.030;18.518;2022-10-20T20:23:21;101300.94;;;9.64;64.40
69214;BME280;56325;47.030;18.518;2022-10-20T20:26:14;101305.06;;;9.72;64.23
69214;BME280;56325;47.030;18.518;2022-10-20T20:28:50;101296.91;;;9.69;64.49
69214;BME280;56325;47.030;18.518;2022-10-20T20:31:25;101303.75;;;9.61;64.50
69214;BME280;56325;47.030;18.518;2022-10-20T20:34:00;101304.69;;;9.54;64.66
69214;BME280;56325;47.030;18.518;2022-10-20T20:36:34;101309.84;;;9.68;64.19
69214;BME280;56325;47.030;18.518;2022-10-20T20:39:11;101292.00;;;9.60;64.62
69214;BME280;56325;47.030;18.518;2022-10-20T20:41:47;101300.91;;;9.48;64.93
69214;BME280;56325;47.030;18.518;2022-10-20T20:44:21;101302.53;;;9.45;64.92
69214;BME280;56325;47.030;18.518;2022-10-20T20:46:56;101301.84;;;9.41;65.27
69214;BME280;56325;47.030;18.518;2022-10-20T20:49:30;101304.66;;;9.38;65.39
69214;BME280;56325;47.030;18.518;2022-10-20T20:52:04;101297.66;;;9.53;64.69
69214;BME280;56325;47.030;18.518;2022-10-20T20:54:39;101302.41;;;9.33;65.27
69214;BME280;56325;47.030;18.518;2022-10-20T20:57:14;101298.03;;;9.35;65.12
69214;BME280;56325;47.030;18.518;2022-10-20T20:59:49;101294.81;;;9.40;65.40
69214;BME280;56325;47.030;18.518;2022-10-20T21:02:23;101307.41;;;9.18;65.71
69214;BME280;56325;47.030;18.518;2022-10-20T21:04:57;101296.56;;;9.31;65.61
69214;BME280;56325;47.030;18.518;2022-10-20T21:07:31;101291.16;;;9.27;65.62
69214;BME280;56325;47.030;18.518;2022-10-20T21:10:06;101299.75;;;9.29;65.60
69214;BME280;56325;47.030;18.518;2022-10-20T21:12:42;101289.88;;;9.32;65.75
69214;BME280;56325;47.030;18.518;2022-10-20T21:15:17;101300.88;;;9.32;65.68
69214;BME280;56325;47.030;18.518;2022-10-20T21:17:51;101299.16;;;9.38;65.38
69214;BME280;56325;47.030;18.518;2022-10-20T21:20:25;101304.87;;;9.27;65.78
69214;BME280;56325;47.030;18.518;2022-10-20T21:23:00;101300.44;;;9.33;65.91
69214;BME280;56325;47.030;18.518;2022-10-20T21:25:34;101297.63;;;9.37;65.74
69214;BME280;56325;47.030;18.518;2022-10-20T21:28:10;101300.22;;;9.44;65.68
69214;BME280;56325;47.030;18.518;2022-10-20T21:30:44;101302.91;;;9.28;65.79
69214;BME280;56325;47.030;18.518;2022-10-20T21:33:18;101300.38;;;9.37;65.81
69214;BME280;56325;47.030;18.518;2022-10-20T21:35:58;101294.19;;;9.33;65.92
69214;BME280;56325;47.030;18.518;2022-10-20T21:38:33;101304.47;;;9.29;65.68
69214;BME280;56325;47.030;18.518;2022-10-20T21:41:10;101282.56;;;9.25;65.96
69214;BME280;56325;47.030;18.518;2022-10-20T21:43:47;101296.72;;;9.04;66.54
69214;BME280;56325;47.030;18.518;2022-10-20T21:46:25;101295.47;;;9.08;66.48
69214;BME280;56325;47.030;18.518;2022-10-20T21:49:01;101297.72;;;9.13;66.10
69214;BME280;56325;47.030;18.518;2022-10-20T21:51:38;101292.62;;;8.92;66.83
69214;BME280;56325;47.030;18.518;2022-10-20T21:54:14;101293.56;;;8.85;66.58
69214;BME280;56325;47.030;18.518;2022-10-20T21:56:48;101294.03;;;8.80;67.06
69214;BME280;56325;47.030;18.518;2022-10-20T21:59:25;101282.78;;;8.75;67.16
69214;BME280;56325;47.030;18.518;2022-10-20T22:02:00;101295.78;;;8.71;67.19